首页
METAR-TAF:

METAR-TAF

机场 :

阿尔图纳, 宾夕法尼亚州, 美国

纬度: 40-18-00N, 经度: 078-19-01W, 海拔: 458米

当前天气观测

该预报发布于1小时和1分钟前的10:53 UTC
风速16节,风向西,有时为24节阵风
温度 -3°C
湿度 63%
气压 1003 hPa
能見度: 16.1公里
阴天层高于3300英尺

METAR: KAOO 271053Z AUTO 28016G24KT 10SM OVC033 M03/M09 A2963 RMK AO2 PK WND 28034/1039 SNE29 SLP045 P0000 T10281089

时间: 06:54 (11:54 UTC)

预报

该预报发布于13分钟前的11:41 UTC
预报有效从27日的 12点(UTC)到 28日的 12点(UTC)
风速20节,风向西,有时为30节阵风
能見度: 8.0公里
阴天层高于2500英尺
小阵雪
从 27日的 1500点(UTC)
风速25节,风向西,有时为35节阵风
能見度: 9.7公里
多云层高于3500英尺
小阵雪
从 28日的 0600点(UTC)
风速15节,风向西,有时为25节阵风
能見度: 10公里
多云层高于3500英尺
小阵雪

TAF: KAOO 271141Z 2712/2812 27020G30KT 5SM -SHSN OVC025 FM271500 28025G35KT 6SM -SHSN BKN035 FM280600 27015G25KT P6SM -SHSN BKN035

超过4000个机场的气象观测和天气预报(METAR&TAF报告)。

可查询的气象台以黄色和红色小点在地图上表示。

将鼠标移到小点上方,可查看气象台名称。

然后点击查看天气观测和预报。

如需切换地图:点击带黑十字的绿色按钮放大地图;点击带横线的绿色按钮缩小地图;或者点击绿色箭头查看邻近地区的地图。


METAR-TAF: